CheckWX is a tool to help pilots better visualize weather data.  It is not intended as a substitute for an official pre-flight weather briefing.

04:47:00 UTC

HCMM METAR
Aden Adde International Airport
Mogadishu
Current

47 mins ago

HCMM 240400Z 19017KT 9999 BKN018 OVC080 26/21 Q1011
Observed
Jul-24 @ 04:00 UTC
Wind
  • 190° at 17 KTS
Visibility
10,000+ meters
Flight Rules
MVFR
Cloud Levels
  • Broken at 1,800' AGL
  • Overcast at 8,000' AGL
Temperature
26°C / 79°F
Dewpoint
21°C / 70°F
Humidity
74%
Altimeter
29.85" Hg
Pressure
1010.92 hPa
Previous

15 hours ago

HCMM 231400Z 19017KT 9999 SCT019 OVC090 25/21 Q1009 RE-RA
Observed
Jul-23 @ 14:00 UTC
Wind
  • 190° at 17 KTS
Visibility
10,000+ meters
Flight Rules
VFR
Conditions
Light Rain
Cloud Levels
  • Scattered at 1,900' AGL
  • Overcast at 9,000' AGL
Temperature
25°C / 77°F
Dewpoint
21°C / 70°F
Humidity
79%
Altimeter
29.79" Hg
Pressure
1008.92 hPa
Previous

16 hours ago

HCMM 231300Z 21019KT 7000 -RA BKN019 OVC080 29/21 Q1010
Observed
Jul-23 @ 13:00 UTC
Wind
  • 210° at 19 KTS
Visibility
7,000 meters
Flight Rules
MVFR
Conditions
Light Rain
Cloud Levels
  • Broken at 1,900' AGL
  • Overcast at 8,000' AGL
Temperature
29°C / 84°F
Dewpoint
21°C / 70°F
Heat Index
31°C / 88°F
Humidity
62%
Altimeter
29.82" Hg
Pressure
1009.92 hPa